createdAt,value
2018-12-27T00:01:35.645Z,4.66
2018-12-27T00:04:05.557Z,4.80
2018-12-27T00:06:35.451Z,4.63
2018-12-27T00:09:07.203Z,4.65
2018-12-27T00:11:37.164Z,4.75
2018-12-27T00:14:06.991Z,4.51
2018-12-27T00:16:36.672Z,4.68
2018-12-27T00:19:06.378Z,4.79
2018-12-27T00:21:36.285Z,4.71
2018-12-27T00:24:05.892Z,4.70
2018-12-27T00:26:35.711Z,4.85
2018-12-27T00:29:05.393Z,4.90
2018-12-27T00:31:35.736Z,4.63
2018-12-27T00:34:05.717Z,4.69
2018-12-27T00:36:35.844Z,4.59
2018-12-27T00:39:06.022Z,4.59
2018-12-27T00:41:36.153Z,4.72
2018-12-27T00:44:07.624Z,4.65
2018-12-27T00:46:39.624Z,4.68
2018-12-27T00:49:09.538Z,4.69
2018-12-27T00:51:39.518Z,4.70
2018-12-27T00:54:09.613Z,4.62
2018-12-27T00:56:39.776Z,4.56
2018-12-27T00:59:10.083Z,4.75
2018-12-27T01:01:40.148Z,4.76
2018-12-27T01:04:10.097Z,4.46
2018-12-27T01:06:40.086Z,4.68
2018-12-27T01:09:09.981Z,4.71
2018-12-27T01:11:40.026Z,4.53
2018-12-27T01:14:10.166Z,4.32
2018-12-27T01:16:40.162Z,4.62
2018-12-27T01:19:10.144Z,4.48
2018-12-27T01:21:39.977Z,4.34
2018-12-27T01:24:10.136Z,4.25
2018-12-27T01:26:40.273Z,4.46
2018-12-27T01:29:10.458Z,4.25
2018-12-27T01:31:40.703Z,4.17
2018-12-27T01:34:10.686Z,4.22
2018-12-27T01:36:41.032Z,4.25
2018-12-27T01:39:11.067Z,4.06
2018-12-27T01:41:41.270Z,3.89
2018-12-27T01:44:11.520Z,3.84
2018-12-27T01:46:41.457Z,3.98
2018-12-27T01:49:11.493Z,3.73
2018-12-27T01:51:41.817Z,3.75
2018-12-27T01:54:12.095Z,3.80
2018-12-27T01:56:42.092Z,3.73
2018-12-27T01:59:12.068Z,3.79
2018-12-27T02:01:42.107Z,3.83
2018-12-27T02:04:12.726Z,3.93
2018-12-27T02:06:42.881Z,3.83
2018-12-27T02:09:13.119Z,3.97
2018-12-27T02:11:42.927Z,3.51
2018-12-27T02:14:13.012Z,3.62
2018-12-27T02:16:43.061Z,3.77
2018-12-27T02:19:13.577Z,3.86
2018-12-27T02:21:43.769Z,3.68
2018-12-27T02:24:13.681Z,3.79
2018-12-27T02:26:43.946Z,3.63
2018-12-27T02:29:13.977Z,3.81
2018-12-27T02:31:44.314Z,3.88
2018-12-27T02:34:14.098Z,3.94
2018-12-27T02:36:44.211Z,3.76
2018-12-27T02:39:14.135Z,3.99
2018-12-27T02:41:44.258Z,3.97
2018-12-27T02:44:14.280Z,4.09
2018-12-27T02:46:44.327Z,4.05
2018-12-27T02:49:14.161Z,4.04
2018-12-27T02:51:44.542Z,4.20
2018-12-27T02:54:14.661Z,4.17
2018-12-27T02:56:44.882Z,4.02
2018-12-27T02:59:15.590Z,4.26
2018-12-27T03:01:45.527Z,4.24
2018-12-27T03:04:15.445Z,4.04
2018-12-27T03:06:45.527Z,4.03
2018-12-27T03:09:15.455Z,4.20
2018-12-27T03:11:46.495Z,4.02
2018-12-27T03:14:16.316Z,4.06
2018-12-27T03:16:46.404Z,3.93
2018-12-27T03:19:16.262Z,3.84
2018-12-27T03:21:46.232Z,3.81
2018-12-27T03:24:16.156Z,3.70
2018-12-27T03:26:46.156Z,3.79
2018-12-27T03:29:16.052Z,3.63
2018-12-27T03:31:46.196Z,3.57
2018-12-27T03:34:16.445Z,3.54
2018-12-27T03:36:46.463Z,3.43
2018-12-27T03:39:16.423Z,3.28
2018-12-27T03:41:46.470Z,3.19
2018-12-27T03:44:16.582Z,3.25
2018-12-27T03:46:46.831Z,3.18
2018-12-27T03:49:16.737Z,3.15
2018-12-27T03:51:46.913Z,3.20
2018-12-27T03:54:16.842Z,3.03
2018-12-27T03:56:46.916Z,3.12
2018-12-27T03:59:16.866Z,3.13
2018-12-27T04:01:46.806Z,3.19
2018-12-27T04:04:16.864Z,3.26
2018-12-27T04:06:47.060Z,3.33
2018-12-27T04:09:17.100Z,3.22
2018-12-27T04:11:47.082Z,3.09
2018-12-27T04:14:17.037Z,3.00
2018-12-27T04:16:46.705Z,3.06
2018-12-27T04:19:16.449Z,3.16
2018-12-27T04:21:46.108Z,3.17
2018-12-27T04:24:18.122Z,3.04
2018-12-27T04:26:47.699Z,3.05
2018-12-27T04:29:17.306Z,3.14
2018-12-27T04:31:48.170Z,3.24
2018-12-27T04:34:18.572Z,3.19
2018-12-27T04:36:48.918Z,3.03
2018-12-27T04:39:18.422Z,3.12
2018-12-27T04:41:48.759Z,2.92
2018-12-27T04:44:18.858Z,2.79
2018-12-27T04:46:48.641Z,2.90
2018-12-27T04:49:18.241Z,2.83
2018-12-27T04:51:48.087Z,2.77
2018-12-27T04:54:17.620Z,2.92
2018-12-27T04:56:47.109Z,3.04
2018-12-27T04:59:16.958Z,2.85
2018-12-27T05:01:46.530Z,2.77
2018-12-27T05:04:18.384Z,2.74
2018-12-27T05:06:47.555Z,2.76
2018-12-27T05:09:17.076Z,2.68
2018-12-27T05:11:46.952Z,2.62
2018-12-27T05:14:16.474Z,2.60
2018-12-27T05:16:46.112Z,2.71
2018-12-27T05:19:15.686Z,2.65
2018-12-27T05:21:45.510Z,2.74
2018-12-27T05:24:15.094Z,2.61
2018-12-27T05:26:44.671Z,2.61
2018-12-27T05:29:14.486Z,2.62
2018-12-27T05:31:44.393Z,2.62
2018-12-27T05:34:13.954Z,2.57
2018-12-27T05:36:43.570Z,2.52
2018-12-27T05:39:13.301Z,2.58
2018-12-27T05:41:43.216Z,2.72
2018-12-27T05:44:12.799Z,2.71
2018-12-27T05:46:42.665Z,2.63
2018-12-27T05:49:12.261Z,2.70
2018-12-27T05:51:42.140Z,2.69
2018-12-27T05:54:11.634Z,2.91
2018-12-27T05:56:41.499Z,2.90
2018-12-27T05:59:11.058Z,2.89
2018-12-27T06:01:41.091Z,2.63
2018-12-27T06:04:11.096Z,2.53
2018-12-27T06:06:40.694Z,2.53
2018-12-27T06:09:10.203Z,2.62
2018-12-27T06:11:39.781Z,2.74
2018-12-27T06:14:09.338Z,2.90
2018-12-27T06:16:39.210Z,2.94
2018-12-27T06:19:08.703Z,3.04
2018-12-27T06:21:38.586Z,2.73
2018-12-27T06:24:08.160Z,2.76
2018-12-27T06:26:37.951Z,2.89
2018-12-27T06:29:07.504Z,2.84
2018-12-27T06:31:37.391Z,2.98
2018-12-27T06:34:06.969Z,2.85
2018-12-27T06:36:36.732Z,2.88
2018-12-27T06:39:07.494Z,2.64
2018-12-27T06:41:37.161Z,2.75
2018-12-27T06:44:06.776Z,2.77
2018-12-27T06:46:36.576Z,2.78
2018-12-27T06:49:06.270Z,2.70
2018-12-27T06:51:36.017Z,2.95
2018-12-27T06:54:05.649Z,3.02
2018-12-27T06:56:35.546Z,3.07
2018-12-27T06:59:05.322Z,2.99
2018-12-27T07:01:35.211Z,2.98
2018-12-27T07:04:05.184Z,2.98
2018-12-27T07:06:34.670Z,3.01
2018-12-27T07:09:06.460Z,3.01
2018-12-27T07:11:36.030Z,3.07
2018-12-27T07:14:05.828Z,3.02
2018-12-27T07:16:35.479Z,2.81
2018-12-27T07:19:05.268Z,2.92
2018-12-27T07:21:34.951Z,2.91
2018-12-27T07:24:04.815Z,3.02
2018-12-27T07:26:34.383Z,3.00
2018-12-27T07:29:04.130Z,3.18
2018-12-27T07:31:33.742Z,2.97
2018-12-27T07:34:03.515Z,2.94
2018-12-27T07:36:33.112Z,3.04
2018-12-27T07:39:02.869Z,3.22
2018-12-27T07:41:32.525Z,3.28
2018-12-27T07:44:02.140Z,3.03
2018-12-27T07:46:32.079Z,3.17
2018-12-27T07:49:01.769Z,3.12
2018-12-27T07:51:31.495Z,3.16
2018-12-27T07:54:01.158Z,3.15
2018-12-27T07:56:30.996Z,3.19
2018-12-27T07:59:00.945Z,3.20
2018-12-27T08:01:30.569Z,3.42
2018-12-27T08:04:00.289Z,3.32
2018-12-27T08:06:29.814Z,3.41
2018-12-27T08:08:59.481Z,3.27
2018-12-27T08:11:29.083Z,3.41
2018-12-27T08:13:58.795Z,3.59
2018-12-27T08:16:28.493Z,3.67
2018-12-27T08:18:58.268Z,3.43
2018-12-27T08:21:28.006Z,3.39
2018-12-27T08:23:58.059Z,3.60
2018-12-27T08:26:27.612Z,3.43
2018-12-27T08:28:57.189Z,3.51
2018-12-27T08:31:26.805Z,3.86
2018-12-27T08:33:56.530Z,3.70
2018-12-27T08:36:26.145Z,3.91
2018-12-27T08:38:56.039Z,3.69
2018-12-27T08:41:25.518Z,3.51
2018-12-27T08:43:55.348Z,3.77
2018-12-27T08:46:24.997Z,3.97
2018-12-27T08:48:54.519Z,3.99
2018-12-27T08:51:24.384Z,3.87
2018-12-27T08:53:54.215Z,3.78
2018-12-27T08:56:23.709Z,3.98
2018-12-27T08:58:53.314Z,4.02
2018-12-27T09:01:23.030Z,4.21
2018-12-27T09:03:53.150Z,3.96
2018-12-27T09:06:22.700Z,3.93
2018-12-27T09:08:52.488Z,3.95
2018-12-27T09:11:22.134Z,4.20
2018-12-27T09:13:51.929Z,4.11
2018-12-27T09:16:21.664Z,4.12
2018-12-27T09:18:51.282Z,4.29
2018-12-27T09:21:20.942Z,4.22
2018-12-27T09:23:50.679Z,4.23
2018-12-27T09:26:20.318Z,4.00
2018-12-27T09:28:50.122Z,4.07
2018-12-27T09:31:19.757Z,4.22
2018-12-27T09:33:49.582Z,4.07
2018-12-27T09:36:19.133Z,4.02
2018-12-27T09:38:48.951Z,4.25
2018-12-27T09:41:18.522Z,4.07
2018-12-27T09:43:48.408Z,3.83
2018-12-27T09:46:17.989Z,3.84
2018-12-27T09:48:47.763Z,3.99
2018-12-27T09:51:17.456Z,4.09
2018-12-27T09:53:47.197Z,4.10
2018-12-27T09:56:16.827Z,4.29
2018-12-27T09:58:46.345Z,3.97
2018-12-27T10:01:15.992Z,4.33
2018-12-27T10:03:45.583Z,4.04
2018-12-27T10:06:15.439Z,3.92
2018-12-27T10:08:45.088Z,4.06
2018-12-27T10:11:14.773Z,4.23
2018-12-27T10:13:44.275Z,4.27
2018-12-27T10:16:14.255Z,4.17
2018-12-27T10:18:44.529Z,4.22
2018-12-27T10:21:14.661Z,4.33
2018-12-27T10:23:44.268Z,4.34
2018-12-27T10:26:14.006Z,4.54
2018-12-27T10:28:43.524Z,4.24
2018-12-27T10:31:13.490Z,4.55
2018-12-27T10:33:42.972Z,4.44
2018-12-27T10:36:12.843Z,4.55
2018-12-27T10:38:42.336Z,4.73
2018-12-27T10:41:12.184Z,4.57
2018-12-27T10:43:41.871Z,4.56
2018-12-27T10:46:11.554Z,4.91
2018-12-27T10:48:41.321Z,4.72
2018-12-27T10:51:10.978Z,4.81
2018-12-27T10:53:40.654Z,4.91
2018-12-27T10:56:10.522Z,4.82
2018-12-27T10:58:40.107Z,4.92
2018-12-27T11:01:09.804Z,5.35
2018-12-27T11:03:39.497Z,5.05
2018-12-27T11:06:09.150Z,4.83
2018-12-27T11:08:38.894Z,5.11
2018-12-27T11:11:08.703Z,5.41
2018-12-27T11:13:38.415Z,5.05
2018-12-27T11:16:08.155Z,5.68
2018-12-27T11:18:37.821Z,5.29
2018-12-27T11:21:07.700Z,5.34
2018-12-27T11:23:37.344Z,5.86
2018-12-27T11:26:07.257Z,5.80
2018-12-27T11:28:37.093Z,5.73
2018-12-27T11:31:06.782Z,5.78
2018-12-27T11:33:36.618Z,6.10
2018-12-27T11:36:17.247Z,5.36
2018-12-27T11:38:45.282Z,5.64
2018-12-27T11:41:15.336Z,5.90
2018-12-27T11:43:45.498Z,5.93
2018-12-27T11:46:15.391Z,6.20
2018-12-27T11:48:44.985Z,6.33
2018-12-27T11:51:15.309Z,5.71
2018-12-27T11:53:45.137Z,6.00
2018-12-27T11:56:14.764Z,5.89
2018-12-27T11:58:44.789Z,5.94
2018-12-27T12:01:14.608Z,6.19
2018-12-27T12:03:44.143Z,6.00
2018-12-27T12:06:14.110Z,5.94
2018-12-27T12:08:43.696Z,5.94
2018-12-27T12:11:13.627Z,5.73
2018-12-27T12:13:43.154Z,5.95
2018-12-27T12:16:13.217Z,6.55
2018-12-27T12:18:43.391Z,6.06
2018-12-27T12:21:13.236Z,5.78
2018-12-27T12:23:42.899Z,6.12
2018-12-27T12:26:13.158Z,5.85
2018-12-27T12:28:42.890Z,6.04
2018-12-27T12:31:12.458Z,6.06
2018-12-27T12:33:42.230Z,6.45
2018-12-27T12:36:12.024Z,6.12
2018-12-27T12:38:42.282Z,6.03
2018-12-27T12:41:12.309Z,6.33
2018-12-27T12:43:42.299Z,6.16
2018-12-27T12:46:11.776Z,6.29
2018-12-27T12:48:41.809Z,6.46
2018-12-27T12:51:11.808Z,6.37
2018-12-27T12:53:41.401Z,6.12
2018-12-27T12:56:11.202Z,6.26
2018-12-27T12:58:40.747Z,6.09
2018-12-27T13:01:10.694Z,6.03
2018-12-27T13:03:40.332Z,6.36
2018-12-27T13:06:10.001Z,6.57
2018-12-27T13:08:39.618Z,6.30
2018-12-27T13:11:09.310Z,6.14
2018-12-27T13:13:39.053Z,5.80
2018-12-27T13:16:08.763Z,5.96
2018-12-27T13:18:38.466Z,5.89
2018-12-27T13:21:08.133Z,6.04
2018-12-27T13:23:37.792Z,5.77
2018-12-27T13:26:07.629Z,5.99
2018-12-27T13:28:37.183Z,5.93
2018-12-27T13:31:07.048Z,6.38
2018-12-27T13:33:36.561Z,5.92
2018-12-27T13:36:06.518Z,6.07
2018-12-27T13:38:36.294Z,5.72
2018-12-27T13:41:05.882Z,5.91
2018-12-27T13:43:35.612Z,5.98
2018-12-27T13:46:05.380Z,6.21
2018-12-27T13:48:34.956Z,6.13
2018-12-27T13:51:05.120Z,5.78
2018-12-27T13:53:35.888Z,5.95
2018-12-27T13:56:05.587Z,6.09
2018-12-27T13:58:35.358Z,6.30
2018-12-27T14:01:05.013Z,6.03
2018-12-27T14:03:34.752Z,5.86
2018-12-27T14:06:04.313Z,5.95
2018-12-27T14:08:34.153Z,5.82
2018-12-27T14:11:03.761Z,5.90
2018-12-27T14:13:33.501Z,5.88
2018-12-27T14:16:03.209Z,5.71
2018-12-27T14:18:32.938Z,6.10
2018-12-27T14:21:02.547Z,6.29
2018-12-27T14:23:32.513Z,6.03
2018-12-27T14:26:02.193Z,6.03
2018-12-27T14:28:31.894Z,5.91
2018-12-27T14:31:01.498Z,6.23
2018-12-27T14:33:31.163Z,5.96
2018-12-27T14:36:00.844Z,5.82
2018-12-27T14:38:30.401Z,5.85
2018-12-27T14:41:00.195Z,5.74
2018-12-27T14:43:29.976Z,5.87
2018-12-27T14:45:59.615Z,5.90
2018-12-27T14:48:29.137Z,5.82
2018-12-27T14:50:59.009Z,5.85
2018-12-27T14:53:28.728Z,5.91
2018-12-27T14:55:58.455Z,5.50
2018-12-27T14:58:28.264Z,5.42
2018-12-27T15:00:57.911Z,5.62
2018-12-27T15:03:27.702Z,5.66
2018-12-27T15:05:57.361Z,5.69
2018-12-27T15:08:27.231Z,5.57
2018-12-27T15:10:56.960Z,5.65
2018-12-27T15:13:26.562Z,5.57
2018-12-27T15:15:56.436Z,5.75
2018-12-27T15:18:26.138Z,5.61
2018-12-27T15:20:55.799Z,5.69
2018-12-27T15:23:25.540Z,5.63
2018-12-27T15:25:55.170Z,5.51
2018-12-27T15:28:25.166Z,5.41
2018-12-27T15:30:54.947Z,5.38
2018-12-27T15:33:24.614Z,5.58
2018-12-27T15:35:54.511Z,5.80
2018-12-27T15:38:24.083Z,5.62
2018-12-27T15:40:53.846Z,5.45
2018-12-27T15:43:23.541Z,5.56
2018-12-27T15:45:53.331Z,5.52
2018-12-27T15:48:22.903Z,5.52
2018-12-27T15:50:52.680Z,5.51
2018-12-27T15:53:22.330Z,5.26
2018-12-27T15:55:52.096Z,5.47
2018-12-27T15:58:21.742Z,5.52
2018-12-27T16:00:51.536Z,5.54
2018-12-27T16:03:21.285Z,5.38
2018-12-27T16:05:50.992Z,5.29
2018-12-27T16:08:20.627Z,5.31
2018-12-27T16:10:50.346Z,5.26
2018-12-27T16:13:19.921Z,5.29
2018-12-27T16:15:49.787Z,5.23
2018-12-27T16:18:19.455Z,5.32
2018-12-27T16:20:49.176Z,5.39
2018-12-27T16:23:18.857Z,5.23
2018-12-27T16:25:48.649Z,5.42
2018-12-27T16:28:18.417Z,5.35
2018-12-27T16:30:48.067Z,5.14
2018-12-27T16:33:17.709Z,5.34
2018-12-27T16:35:47.402Z,5.12
2018-12-27T16:38:17.084Z,5.37
2018-12-27T16:40:46.646Z,5.21
2018-12-27T16:43:16.690Z,5.28
2018-12-27T16:45:46.626Z,5.09
2018-12-27T16:48:16.244Z,5.17
2018-12-27T16:50:45.988Z,4.81
2018-12-27T16:53:15.816Z,5.10
2018-12-27T16:55:45.773Z,4.99
2018-12-27T16:58:15.506Z,5.09
2018-12-27T17:00:45.291Z,5.16
2018-12-27T17:03:15.011Z,5.21
2018-12-27T17:05:45.298Z,5.23
2018-12-27T17:08:15.166Z,5.14
2018-12-27T17:10:45.007Z,4.94
2018-12-27T17:13:14.601Z,5.00
2018-12-27T17:15:44.176Z,5.02
2018-12-27T17:18:13.866Z,5.39
2018-12-27T17:20:43.552Z,5.05
2018-12-27T17:23:13.325Z,5.00
2018-12-27T17:25:43.012Z,5.16
2018-12-27T17:28:12.776Z,5.26
2018-12-27T17:30:42.456Z,5.27
2018-12-27T17:33:12.178Z,4.92
2018-12-27T17:35:41.820Z,4.93
2018-12-27T17:38:11.526Z,4.73
2018-12-27T17:40:41.191Z,4.93
2018-12-27T17:43:10.822Z,4.85
2018-12-27T17:45:40.611Z,4.89
2018-12-27T17:48:10.373Z,5.19
2018-12-27T17:50:40.122Z,5.21
2018-12-27T17:53:10.002Z,5.10
2018-12-27T17:55:39.547Z,4.97
2018-12-27T17:58:09.310Z,5.07
2018-12-27T18:00:38.856Z,4.93
2018-12-27T18:03:09.267Z,4.91
2018-12-27T18:05:39.124Z,4.86
2018-12-27T18:08:08.717Z,4.76
2018-12-27T18:10:38.461Z,4.95
2018-12-27T18:13:08.122Z,4.98
2018-12-27T18:15:37.802Z,5.06
2018-12-27T18:18:07.554Z,5.08
2018-12-27T18:20:37.430Z,4.97
2018-12-27T18:23:07.177Z,5.06
2018-12-27T18:25:36.966Z,4.88
2018-12-27T18:28:06.798Z,5.01
2018-12-27T18:30:36.471Z,5.07
2018-12-27T18:33:06.260Z,5.02
2018-12-27T18:35:36.085Z,4.86
2018-12-27T18:38:05.839Z,4.88
2018-12-27T18:40:35.451Z,5.07
2018-12-27T18:43:05.075Z,4.76
2018-12-27T18:45:34.632Z,4.58
2018-12-27T18:48:04.384Z,4.65
2018-12-27T18:50:34.051Z,4.77
2018-12-27T18:53:04.211Z,4.79
2018-12-27T18:55:34.426Z,4.81
2018-12-27T18:58:04.229Z,4.63
2018-12-27T19:00:33.831Z,4.82
2018-12-27T19:03:03.786Z,4.86
2018-12-27T19:05:33.416Z,4.68
2018-12-27T19:08:03.666Z,4.77
2018-12-27T19:10:33.555Z,4.64
2018-12-27T19:13:09.292Z,4.72
2018-12-27T19:15:49.935Z,4.70
2018-12-27T19:18:24.297Z,4.66
2018-12-27T19:20:59.053Z,4.69
2018-12-27T19:23:29.789Z,4.53
2018-12-27T19:25:59.458Z,4.69
2018-12-27T19:28:29.454Z,4.66
2018-12-27T19:30:59.159Z,4.60
2018-12-27T19:33:28.839Z,4.60
2018-12-27T19:35:58.666Z,4.69
2018-12-27T19:38:28.344Z,4.70
2018-12-27T19:40:58.209Z,4.58
2018-12-27T19:43:27.721Z,4.59
2018-12-27T19:45:57.460Z,4.57
2018-12-27T19:48:27.192Z,4.55
2018-12-27T19:50:57.216Z,4.54
2018-12-27T19:53:26.732Z,4.50
2018-12-27T19:55:56.885Z,4.46
2018-12-27T19:58:26.872Z,4.35
2018-12-27T20:00:57.081Z,4.38
2018-12-27T20:03:26.920Z,4.33
2018-12-27T20:05:56.624Z,4.29
2018-12-27T20:08:26.436Z,4.41
2018-12-27T20:10:56.215Z,4.49
2018-12-27T20:13:26.040Z,4.35
2018-12-27T20:15:56.073Z,4.38
2018-12-27T20:18:25.681Z,4.39
2018-12-27T20:20:55.443Z,4.38
2018-12-27T20:23:25.205Z,4.38
2018-12-27T20:25:55.274Z,4.42
2018-12-27T20:28:25.021Z,4.32
2018-12-27T20:30:54.740Z,4.24
2018-12-27T20:33:24.481Z,4.30
2018-12-27T20:35:54.091Z,4.08
2018-12-27T20:38:23.850Z,4.29
2018-12-27T20:40:53.489Z,4.33
2018-12-27T20:43:23.284Z,4.25
2018-12-27T20:45:52.871Z,4.24
2018-12-27T20:48:22.622Z,4.18
2018-12-27T20:50:52.284Z,4.29
2018-12-27T20:53:22.146Z,4.26
2018-12-27T20:55:51.900Z,4.32
2018-12-27T20:58:22.096Z,4.36
2018-12-27T21:00:51.715Z,4.42
2018-12-27T21:03:21.564Z,4.28
2018-12-27T21:05:51.665Z,4.32
2018-12-27T21:08:21.370Z,4.48
2018-12-27T21:10:51.020Z,4.49
2018-12-27T21:13:20.905Z,4.54
2018-12-27T21:15:50.433Z,4.55
2018-12-27T21:18:20.099Z,4.69
2018-12-27T21:20:49.785Z,4.47
2018-12-27T21:23:19.453Z,4.71
2018-12-27T21:25:49.172Z,4.67
2018-12-27T21:28:18.898Z,4.58
2018-12-27T21:30:48.672Z,4.68
2018-12-27T21:33:18.388Z,4.71
2018-12-27T21:35:48.085Z,4.48
2018-12-27T21:38:21.397Z,4.52
2018-12-27T21:40:51.459Z,4.49
2018-12-27T21:43:21.123Z,4.55
2018-12-27T21:45:50.910Z,4.70
2018-12-27T21:48:20.596Z,4.63
2018-12-27T21:50:50.427Z,4.66
2018-12-27T21:53:29.551Z,4.69
2018-12-27T21:55:59.404Z,4.69
2018-12-27T21:58:29.100Z,4.81
2018-12-27T22:00:58.815Z,4.86
2018-12-27T22:03:41.463Z,4.82
2018-12-27T22:06:10.949Z,4.86
2018-12-27T22:08:40.591Z,4.81
2018-12-27T22:11:21.576Z,4.82
2018-12-27T22:13:52.004Z,4.87
2018-12-27T22:16:22.136Z,4.89
2018-12-27T22:18:51.818Z,4.84
2018-12-27T22:21:33.622Z,4.88
2018-12-27T22:24:04.668Z,4.88
2018-12-27T22:26:35.814Z,4.85
2018-12-27T22:29:05.563Z,4.82
2018-12-27T22:31:35.212Z,5.08
2018-12-27T22:34:05.055Z,4.81
2018-12-27T22:36:36.223Z,4.71
2018-12-27T22:39:08.804Z,4.59
2018-12-27T22:41:38.550Z,4.87
2018-12-27T22:44:08.175Z,4.91
2018-12-27T22:46:37.938Z,4.74
2018-12-27T22:49:07.686Z,4.34
2018-12-27T22:51:37.383Z,4.21
2018-12-27T22:54:07.119Z,4.39
2018-12-27T22:56:37.052Z,4.55
2018-12-27T22:59:07.991Z,4.62
2018-12-27T23:01:37.661Z,4.50
2018-12-27T23:04:07.353Z,4.70
2018-12-27T23:06:37.029Z,4.56
2018-12-27T23:09:07.914Z,4.70
2018-12-27T23:11:37.634Z,4.53
2018-12-27T23:14:07.545Z,4.63
2018-12-27T23:16:39.248Z,4.34
2018-12-27T23:19:10.975Z,4.69
2018-12-27T23:21:40.771Z,4.80
2018-12-27T23:24:10.450Z,4.73
2018-12-27T23:26:40.270Z,4.69
2018-12-27T23:29:09.982Z,4.79
2018-12-27T23:31:39.679Z,4.85
2018-12-27T23:34:09.419Z,4.78
2018-12-27T23:36:39.001Z,4.64
2018-12-27T23:39:09.287Z,4.75
2018-12-27T23:41:38.816Z,4.60
2018-12-27T23:44:08.628Z,4.66
2018-12-27T23:46:46.658Z,4.69
2018-12-27T23:49:17.715Z,4.79
2018-12-27T23:51:47.416Z,4.78
2018-12-27T23:54:17.143Z,4.75
2018-12-27T23:56:46.819Z,4.61
2018-12-27T23:59:16.950Z,4.56
